createdAt,value
2022-11-27T00:01:29.400Z,0.20
2022-11-27T00:03:57.381Z,0.20
2022-11-27T00:06:26.765Z,0.20
2022-11-27T00:08:57.104Z,0.20
2022-11-27T00:11:26.069Z,0.20
2022-11-27T00:13:53.419Z,0.20
2022-11-27T00:16:22.062Z,0.20
2022-11-27T00:18:49.755Z,0.10
2022-11-27T00:21:25.730Z,0.10
2022-11-27T00:23:54.503Z,0.10
2022-11-27T00:26:22.114Z,0.00
2022-11-27T00:28:49.531Z,0.00
2022-11-27T00:31:19.537Z,0.00
2022-11-27T00:33:46.635Z,0.00
2022-11-27T00:36:14.708Z,0.00
2022-11-27T00:38:42.105Z,-0.10
2022-11-27T00:41:11.230Z,-0.10
2022-11-27T00:43:43.960Z,-0.10
2022-11-27T00:46:22.829Z,-0.10
2022-11-27T00:48:54.578Z,-0.10
2022-11-27T00:51:23.566Z,-0.10
2022-11-27T00:53:50.817Z,-0.20
2022-11-27T00:56:38.658Z,-0.30
2022-11-27T00:59:06.829Z,-0.20
2022-11-27T01:01:44.104Z,-0.30
2022-11-27T01:04:14.692Z,-0.30
2022-11-27T01:06:42.468Z,-0.30
2022-11-27T01:09:11.690Z,-0.40
2022-11-27T01:11:39.509Z,-0.40
2022-11-27T01:14:11.325Z,-0.40
2022-11-27T01:16:42.727Z,-0.40
2022-11-27T01:19:11.794Z,-0.40
2022-11-27T01:21:38.792Z,-0.40
2022-11-27T01:24:06.231Z,-0.40
2022-11-27T01:26:33.307Z,-0.40
2022-11-27T01:29:00.515Z,-0.50
2022-11-27T01:31:30.611Z,-0.40
2022-11-27T01:34:00.718Z,-0.40
2022-11-27T01:36:28.430Z,-0.40
2022-11-27T01:38:55.880Z,-0.30
2022-11-27T01:41:28.997Z,-0.30
2022-11-27T01:44:00.166Z,-0.20
2022-11-27T01:46:39.390Z,-0.20
2022-11-27T01:49:09.388Z,-0.20
2022-11-27T01:51:49.044Z,-0.10
2022-11-27T01:54:17.085Z,-0.10
2022-11-27T01:56:48.613Z,-0.10
2022-11-27T01:59:18.130Z,-0.10
2022-11-27T02:01:45.093Z,-0.10
2022-11-27T02:04:12.423Z,-0.10
2022-11-27T02:06:39.591Z,0.00
2022-11-27T02:09:06.838Z,0.00
2022-11-27T02:11:46.550Z,0.00
2022-11-27T02:14:46.592Z,0.00
2022-11-27T02:17:34.424Z,0.10
2022-11-27T02:20:07.219Z,0.10
2022-11-27T02:22:52.264Z,0.10
2022-11-27T02:25:37.825Z,0.10
2022-11-27T02:28:52.090Z,0.10
2022-11-27T02:31:38.590Z,0.20
2022-11-27T02:34:12.029Z,0.10
2022-11-27T02:36:43.784Z,0.10
2022-11-27T02:39:17.631Z,0.10
2022-11-27T02:41:49.585Z,0.10
2022-11-27T02:44:17.424Z,0.10
2022-11-27T02:46:46.510Z,0.10
2022-11-27T02:49:16.715Z,0.00
2022-11-27T02:51:53.931Z,0.00
2022-11-27T02:54:27.167Z,0.00
2022-11-27T02:56:56.476Z,0.00
2022-11-27T02:59:26.516Z,-0.10
2022-11-27T03:01:57.298Z,0.00
2022-11-27T03:04:32.345Z,0.00
2022-11-27T03:07:04.386Z,-0.10
2022-11-27T03:09:35.675Z,0.00
2022-11-27T03:12:05.027Z,0.00
2022-11-27T03:14:32.407Z,0.00
2022-11-27T03:17:31.915Z,0.00
2022-11-27T03:20:12.204Z,0.00
2022-11-27T03:22:39.222Z,0.00
2022-11-27T03:25:06.533Z,0.00
2022-11-27T03:27:38.919Z,0.00
2022-11-27T03:30:08.549Z,0.00
2022-11-27T03:32:35.512Z,-0.10
2022-11-27T03:35:02.982Z,-0.10
2022-11-27T03:37:29.925Z,-0.10
2022-11-27T03:39:56.911Z,-0.10
2022-11-27T03:42:40.249Z,-0.10
2022-11-27T03:45:19.210Z,-0.10
2022-11-27T03:47:52.438Z,-0.10
2022-11-27T03:50:31.515Z,-0.10
2022-11-27T03:53:17.820Z,-0.10
2022-11-27T03:55:59.866Z,-0.10
2022-11-27T03:58:35.683Z,-0.10
2022-11-27T04:01:05.774Z,-0.10
2022-11-27T04:03:32.767Z,-0.10
2022-11-27T04:05:59.788Z,-0.10
2022-11-27T04:08:26.751Z,0.00
2022-11-27T04:10:53.773Z,-0.10
2022-11-27T04:13:20.747Z,-0.10
2022-11-27T04:15:48.183Z,-0.10
2022-11-27T04:18:15.178Z,-0.10
2022-11-27T04:20:42.120Z,-0.10
2022-11-27T04:23:10.089Z,-0.10
2022-11-27T04:25:37.076Z,-0.10
2022-11-27T04:28:03.998Z,-0.20
2022-11-27T04:30:30.899Z,-0.20
2022-11-27T04:32:57.882Z,-0.20
2022-11-27T04:35:24.826Z,-0.20
2022-11-27T04:37:51.862Z,-0.30
2022-11-27T04:40:19.061Z,-0.30
2022-11-27T04:42:46.054Z,-0.30
2022-11-27T04:45:13.179Z,-0.40
2022-11-27T04:47:40.563Z,-0.40
2022-11-27T04:50:08.213Z,-0.40
2022-11-27T04:52:35.076Z,-0.40
2022-11-27T04:55:02.022Z,-0.50
2022-11-27T04:57:29.035Z,-0.50
2022-11-27T04:59:56.122Z,-0.50
2022-11-27T05:02:23.191Z,-0.40
2022-11-27T05:04:50.346Z,-0.40
2022-11-27T05:07:17.310Z,-0.30
2022-11-27T05:09:44.238Z,-0.20
2022-11-27T05:12:11.197Z,-0.20
2022-11-27T05:14:38.475Z,-0.10
2022-11-27T05:17:05.706Z,-0.10
2022-11-27T05:19:32.797Z,-0.10
2022-11-27T05:21:59.701Z,0.00
2022-11-27T05:24:28.182Z,0.00
2022-11-27T05:26:56.346Z,0.00
2022-11-27T05:29:24.565Z,0.00
2022-11-27T05:31:51.938Z,0.00
2022-11-27T05:34:19.618Z,0.00
2022-11-27T05:36:46.668Z,0.00
2022-11-27T05:39:13.505Z,0.00
2022-11-27T05:41:43.031Z,0.00
2022-11-27T05:44:16.214Z,0.00
2022-11-27T05:46:43.896Z,0.00
2022-11-27T05:49:15.704Z,-0.10
2022-11-27T05:51:47.781Z,-0.10
2022-11-27T05:54:17.776Z,-0.20
2022-11-27T05:56:45.001Z,-0.20
2022-11-27T05:59:12.722Z,-0.20
2022-11-27T06:01:40.117Z,-0.20
2022-11-27T06:04:07.194Z,-0.20
2022-11-27T06:06:34.141Z,-0.20
2022-11-27T06:09:01.153Z,-0.20
2022-11-27T06:11:28.205Z,-0.20
2022-11-27T06:13:55.150Z,-0.20
2022-11-27T06:16:24.355Z,-0.20
2022-11-27T06:18:55.885Z,-0.10
2022-11-27T06:21:24.408Z,-0.10
2022-11-27T06:23:55.607Z,0.00
2022-11-27T06:26:29.109Z,0.00
2022-11-27T06:28:57.617Z,0.10
2022-11-27T06:31:30.463Z,0.10
2022-11-27T06:33:58.091Z,0.20
2022-11-27T06:36:32.598Z,0.20
2022-11-27T06:39:00.153Z,0.30
2022-11-27T06:41:29.002Z,0.30
2022-11-27T06:43:57.842Z,0.30
2022-11-27T06:46:25.023Z,0.30
2022-11-27T06:48:53.511Z,0.30
2022-11-27T06:51:29.990Z,0.40
2022-11-27T06:53:58.957Z,0.40
2022-11-27T06:56:27.397Z,0.40
2022-11-27T06:58:57.123Z,0.40
2022-11-27T07:01:25.789Z,0.40
2022-11-27T07:03:52.836Z,0.40
2022-11-27T07:06:23.015Z,0.40
2022-11-27T07:08:50.553Z,0.50
2022-11-27T07:11:23.148Z,0.40
2022-11-27T07:13:51.129Z,0.50
2022-11-27T07:16:19.034Z,0.50
2022-11-27T07:18:48.947Z,0.50
2022-11-27T07:21:16.897Z,0.50
2022-11-27T07:23:44.564Z,0.50
2022-11-27T07:26:17.403Z,0.50
2022-11-27T07:28:44.926Z,0.50
2022-11-27T07:31:13.771Z,0.50
2022-11-27T07:33:41.870Z,0.60
2022-11-27T07:36:11.673Z,0.60
2022-11-27T07:38:39.023Z,1.80
2022-11-27T07:41:07.014Z,0.70
2022-11-27T07:43:35.655Z,0.70
2022-11-27T07:46:15.749Z,0.80
2022-11-27T07:48:43.247Z,0.70
2022-11-27T07:51:11.758Z,0.80
2022-11-27T07:53:40.559Z,0.80
2022-11-27T07:56:09.426Z,0.80
2022-11-27T07:58:36.971Z,0.90
2022-11-27T08:01:13.524Z,1.00
2022-11-27T08:03:44.140Z,1.00
2022-11-27T08:06:19.751Z,1.10
2022-11-27T08:08:47.098Z,1.10
2022-11-27T08:11:22.895Z,1.10
2022-11-27T08:13:51.156Z,1.10
2022-11-27T08:16:18.369Z,1.20
2022-11-27T08:18:45.562Z,1.20
2022-11-27T08:21:12.921Z,1.30
2022-11-27T08:23:40.097Z,1.30
2022-11-27T08:26:09.524Z,1.40
2022-11-27T08:28:37.690Z,1.40
2022-11-27T08:31:06.363Z,1.40
2022-11-27T08:33:34.263Z,1.50
2022-11-27T08:36:01.802Z,1.60
2022-11-27T08:38:29.189Z,1.60
2022-11-27T08:40:59.950Z,1.70
2022-11-27T08:43:28.267Z,1.70
2022-11-27T08:45:56.357Z,1.80
2022-11-27T08:48:24.365Z,1.90
2022-11-27T08:50:52.693Z,1.90
2022-11-27T08:53:19.915Z,1.90
2022-11-27T08:55:47.265Z,1.90
2022-11-27T08:58:14.196Z,2.00
2022-11-27T09:00:41.464Z,2.00
2022-11-27T09:03:11.789Z,2.00
2022-11-27T09:05:43.508Z,2.00
2022-11-27T09:08:12.591Z,2.00
2022-11-27T09:10:39.726Z,2.00
2022-11-27T09:13:06.817Z,2.10
2022-11-27T09:15:34.024Z,2.10
2022-11-27T09:18:01.090Z,2.10
2022-11-27T09:20:28.238Z,2.20
2022-11-27T09:22:55.391Z,2.30
2022-11-27T09:25:23.176Z,2.30
2022-11-27T09:27:50.201Z,2.40
2022-11-27T09:30:17.350Z,2.40
2022-11-27T09:32:44.343Z,2.50
2022-11-27T09:35:11.438Z,2.50
2022-11-27T09:37:38.429Z,2.50
2022-11-27T09:40:06.215Z,2.50
2022-11-27T09:42:33.175Z,2.50
2022-11-27T09:45:01.562Z,2.50
2022-11-27T09:47:41.441Z,2.50
2022-11-27T09:50:21.270Z,2.60
2022-11-27T09:52:55.493Z,2.60
2022-11-27T09:55:33.139Z,2.60
2022-11-27T09:58:11.506Z,2.60
2022-11-27T10:00:38.385Z,2.60
2022-11-27T10:03:13.347Z,2.70
2022-11-27T10:05:58.460Z,2.70
2022-11-27T10:08:46.500Z,2.80
2022-11-27T10:11:36.468Z,2.90
2022-11-27T10:14:15.597Z,2.90
2022-11-27T10:16:54.954Z,2.90
2022-11-27T10:19:42.821Z,3.00
2022-11-27T10:22:32.228Z,3.00
2022-11-27T10:25:20.761Z,3.10
2022-11-27T10:27:56.759Z,3.20
2022-11-27T10:30:24.178Z,3.30
2022-11-27T10:32:57.097Z,3.40
2022-11-27T10:35:27.036Z,3.50
2022-11-27T10:38:09.951Z,3.60
2022-11-27T10:41:18.591Z,3.60
2022-11-27T10:44:18.341Z,3.70
2022-11-27T10:46:46.087Z,3.80
2022-11-27T10:49:13.155Z,3.80
2022-11-27T10:51:41.960Z,3.80
2022-11-27T10:54:21.289Z,3.80
2022-11-27T10:56:48.397Z,3.80
2022-11-27T10:59:32.968Z,3.80
2022-11-27T11:02:03.530Z,3.90
2022-11-27T11:04:38.075Z,3.90
2022-11-27T11:07:28.745Z,4.00
2022-11-27T11:09:56.703Z,4.00
2022-11-27T11:12:24.085Z,4.00
2022-11-27T11:14:59.486Z,3.90
2022-11-27T11:17:37.303Z,3.90
2022-11-27T11:20:24.294Z,3.90
2022-11-27T11:22:51.782Z,3.90
2022-11-27T11:25:20.793Z,5.60
2022-11-27T11:27:49.586Z,4.00
2022-11-27T11:30:30.331Z,4.00
2022-11-27T11:33:02.596Z,4.10
2022-11-27T11:35:34.678Z,4.10
2022-11-27T11:38:06.201Z,4.10
2022-11-27T11:40:35.830Z,4.10
2022-11-27T11:43:07.670Z,4.20
2022-11-27T11:45:43.765Z,4.20
2022-11-27T11:48:24.787Z,4.20
2022-11-27T11:51:02.821Z,4.20
2022-11-27T11:53:42.315Z,4.20
2022-11-27T11:56:33.390Z,4.20
2022-11-27T11:59:32.877Z,4.30
2022-11-27T12:02:28.968Z,4.30
2022-11-27T12:05:23.151Z,4.40
2022-11-27T12:08:02.399Z,4.40
2022-11-27T12:10:42.982Z,4.50
2022-11-27T12:13:33.036Z,4.50
2022-11-27T12:16:27.153Z,4.60
2022-11-27T12:19:17.968Z,4.60
2022-11-27T12:21:44.943Z,4.60
2022-11-27T12:24:27.130Z,4.60
2022-11-27T12:27:15.259Z,4.60
2022-11-27T12:29:59.010Z,4.60
2022-11-27T12:32:53.084Z,4.60
2022-11-27T12:35:26.242Z,4.60
2022-11-27T12:37:53.205Z,4.50
2022-11-27T12:40:32.091Z,4.50
2022-11-27T12:43:17.259Z,4.50
2022-11-27T12:45:49.668Z,4.50
2022-11-27T12:48:56.117Z,4.50
2022-11-27T12:51:29.530Z,4.50
2022-11-27T12:54:02.876Z,4.50
2022-11-27T12:56:44.847Z,4.50
2022-11-27T12:59:27.264Z,4.50
2022-11-27T13:01:59.818Z,4.50
2022-11-27T13:04:36.965Z,4.50
2022-11-27T13:07:24.934Z,4.50
2022-11-27T13:10:09.370Z,4.50
2022-11-27T13:12:42.235Z,4.50
2022-11-27T13:15:19.677Z,4.50
2022-11-27T13:17:54.159Z,4.50
2022-11-27T13:20:30.116Z,4.50
2022-11-27T13:22:57.143Z,4.50
2022-11-27T13:25:25.929Z,4.50
2022-11-27T13:27:54.396Z,4.50
2022-11-27T13:30:27.850Z,4.50
2022-11-27T13:32:58.019Z,4.50
2022-11-27T13:35:36.864Z,4.40
2022-11-27T13:38:25.310Z,4.40
2022-11-27T13:40:56.145Z,4.40
2022-11-27T13:43:34.169Z,4.40
2022-11-27T13:46:11.943Z,4.40
2022-11-27T13:48:42.272Z,4.40
2022-11-27T13:51:10.891Z,4.40
2022-11-27T13:53:41.030Z,4.40
2022-11-27T13:56:09.831Z,4.50
2022-11-27T13:58:42.453Z,4.50
2022-11-27T14:01:22.182Z,4.40
2022-11-27T14:03:49.812Z,4.50
2022-11-27T14:06:26.826Z,4.40
2022-11-27T14:09:02.973Z,4.40
2022-11-27T14:11:41.339Z,4.50
2022-11-27T14:14:17.429Z,4.50
2022-11-27T14:17:04.287Z,4.50
2022-11-27T14:19:34.653Z,4.50
2022-11-27T14:22:13.387Z,4.50
2022-11-27T14:24:44.304Z,4.50
2022-11-27T14:27:22.591Z,4.50
2022-11-27T14:29:50.826Z,4.50
2022-11-27T14:32:19.529Z,4.50
2022-11-27T14:34:50.716Z,4.40
2022-11-27T14:37:26.644Z,4.50
2022-11-27T14:39:54.550Z,4.50
2022-11-27T14:42:29.339Z,4.50
2022-11-27T14:45:07.081Z,4.50
2022-11-27T14:47:35.170Z,4.50
2022-11-27T14:50:03.577Z,4.40
2022-11-27T14:52:31.409Z,4.50
2022-11-27T14:54:59.153Z,4.50
2022-11-27T14:57:28.132Z,4.50
2022-11-27T15:00:15.114Z,4.50
2022-11-27T15:02:42.314Z,4.50
2022-11-27T15:05:20.119Z,4.50
2022-11-27T15:07:50.809Z,4.40
2022-11-27T15:10:38.540Z,4.40
2022-11-27T15:13:08.288Z,4.40
2022-11-27T15:15:44.289Z,4.40
2022-11-27T15:18:20.423Z,4.40
2022-11-27T15:20:47.679Z,4.40
2022-11-27T15:23:19.444Z,4.40
2022-11-27T15:26:00.569Z,4.40
2022-11-27T15:28:27.508Z,4.30
2022-11-27T15:30:55.873Z,4.30
2022-11-27T15:33:27.646Z,4.20
2022-11-27T15:36:19.351Z,4.20
2022-11-27T15:38:47.773Z,4.20
2022-11-27T15:41:32.973Z,4.20
2022-11-27T15:43:59.841Z,4.20
2022-11-27T15:46:32.398Z,4.10
2022-11-27T15:48:59.495Z,4.10
2022-11-27T15:51:26.436Z,4.10
2022-11-27T15:53:53.433Z,4.10
2022-11-27T15:56:20.857Z,4.00
2022-11-27T15:58:47.846Z,4.00
2022-11-27T16:01:14.809Z,4.00
2022-11-27T16:03:41.839Z,4.00
2022-11-27T16:06:09.188Z,4.00
2022-11-27T16:08:36.663Z,4.00
2022-11-27T16:11:06.917Z,4.00
2022-11-27T16:13:34.424Z,3.90
2022-11-27T16:16:06.302Z,4.00
2022-11-27T16:18:34.471Z,3.90
2022-11-27T16:21:06.042Z,4.00
2022-11-27T16:23:33.402Z,3.90
2022-11-27T16:26:00.700Z,3.90
2022-11-27T16:28:29.256Z,3.90
2022-11-27T16:30:57.999Z,3.90
2022-11-27T16:33:30.284Z,3.90
2022-11-27T16:36:13.257Z,3.90
2022-11-27T16:38:41.069Z,3.90
2022-11-27T16:41:10.818Z,3.90
2022-11-27T16:43:42.180Z,3.90
2022-11-27T16:46:11.762Z,3.90
2022-11-27T16:48:40.297Z,3.80
2022-11-27T16:51:14.621Z,3.90
2022-11-27T16:53:44.025Z,3.90
2022-11-27T16:56:12.790Z,3.90
2022-11-27T16:58:42.741Z,3.80
2022-11-27T17:01:13.011Z,3.90
2022-11-27T17:03:40.365Z,3.90
2022-11-27T17:06:12.092Z,3.90
2022-11-27T17:08:39.758Z,3.90
2022-11-27T17:11:20.275Z,3.90
2022-11-27T17:13:48.610Z,3.80
2022-11-27T17:16:16.446Z,3.80
2022-11-27T17:18:45.677Z,3.80
2022-11-27T17:21:35.854Z,3.80
2022-11-27T17:24:14.451Z,3.80
2022-11-27T17:26:43.181Z,3.10
2022-11-27T17:29:15.372Z,3.80
2022-11-27T17:31:42.879Z,3.70
2022-11-27T17:34:15.052Z,3.70
2022-11-27T17:36:43.227Z,3.70
2022-11-27T17:39:12.134Z,3.70
2022-11-27T17:41:40.734Z,3.70
2022-11-27T17:44:08.049Z,3.70
2022-11-27T17:46:36.301Z,3.70
2022-11-27T17:49:06.952Z,3.70
2022-11-27T17:51:35.848Z,3.70
2022-11-27T17:54:03.877Z,3.70
2022-11-27T17:56:30.896Z,3.70
2022-11-27T17:59:00.245Z,3.70
2022-11-27T18:01:29.669Z,3.70
2022-11-27T18:04:00.859Z,3.70
2022-11-27T18:06:28.044Z,3.60
2022-11-27T18:08:56.717Z,3.60
2022-11-27T18:11:27.847Z,3.60
2022-11-27T18:13:55.143Z,3.60
2022-11-27T18:16:31.171Z,3.60
2022-11-27T18:18:59.630Z,3.60
2022-11-27T18:21:31.078Z,3.60
2022-11-27T18:29:34.964Z,3.50
2022-11-27T18:32:02.338Z,3.50
2022-11-27T18:34:29.372Z,3.50
2022-11-27T18:36:59.591Z,3.50
2022-11-27T18:39:27.672Z,3.50
2022-11-27T18:41:55.236Z,3.50
2022-11-27T18:44:22.298Z,3.50
2022-11-27T18:46:49.481Z,3.50
2022-11-27T18:49:16.553Z,3.50
2022-11-27T18:51:43.793Z,3.60
2022-11-27T18:54:10.882Z,3.50
2022-11-27T18:56:38.248Z,3.60
2022-11-27T18:59:06.347Z,3.60
2022-11-27T19:01:41.349Z,3.60
2022-11-27T19:04:10.853Z,3.60
2022-11-27T19:06:39.297Z,3.60
2022-11-27T19:09:06.732Z,3.60
2022-11-27T19:11:35.082Z,3.60
2022-11-27T19:14:02.383Z,3.70
2022-11-27T19:16:35.221Z,3.60
2022-11-27T19:19:16.804Z,3.70
2022-11-27T19:21:55.514Z,3.70
2022-11-27T19:24:22.624Z,3.70
2022-11-27T19:26:49.560Z,3.70
2022-11-27T19:29:16.469Z,3.70
2022-11-27T19:31:43.639Z,3.70
2022-11-27T19:34:13.308Z,3.80
2022-11-27T19:36:40.826Z,3.80
2022-11-27T19:39:11.962Z,3.80
2022-11-27T19:41:39.148Z,3.80
2022-11-27T19:44:06.964Z,3.80
2022-11-27T19:46:36.397Z,3.80
2022-11-27T19:49:06.125Z,3.80
2022-11-27T19:51:36.300Z,3.80
2022-11-27T19:54:10.054Z,3.80
2022-11-27T19:56:39.981Z,3.80
2022-11-27T19:59:07.362Z,3.80
2022-11-27T20:01:34.576Z,3.80
2022-11-27T20:04:03.280Z,3.80
2022-11-27T20:06:30.402Z,3.80
2022-11-27T20:09:04.050Z,3.80
2022-11-27T20:11:34.972Z,3.90
2022-11-27T20:14:04.411Z,3.90
2022-11-27T20:16:32.056Z,3.80
2022-11-27T20:18:59.205Z,3.90
2022-11-27T20:21:26.984Z,3.90
2022-11-27T20:23:55.299Z,3.80
2022-11-27T20:26:25.351Z,3.90
2022-11-27T20:28:53.165Z,3.90
2022-11-27T20:31:41.186Z,3.90
2022-11-27T20:34:09.058Z,3.90
2022-11-27T20:36:39.396Z,3.90
2022-11-27T20:39:06.339Z,3.90
2022-11-27T20:41:33.405Z,3.90
2022-11-27T20:44:01.916Z,4.00
2022-11-27T20:46:28.953Z,3.90
2022-11-27T20:48:56.484Z,4.00
2022-11-27T20:51:28.480Z,4.00
2022-11-27T20:53:57.897Z,4.00
2022-11-27T20:56:24.988Z,4.00
2022-11-27T20:58:51.888Z,4.00
2022-11-27T21:01:23.254Z,4.00
2022-11-27T21:03:51.975Z,4.00
2022-11-27T21:06:20.957Z,4.00
2022-11-27T21:08:48.017Z,4.00
2022-11-27T21:11:16.193Z,4.00
2022-11-27T21:13:43.317Z,4.10
2022-11-27T21:16:12.233Z,4.10
2022-11-27T21:18:39.952Z,4.10
2022-11-27T21:21:12.656Z,4.10
2022-11-27T21:23:41.630Z,4.10
2022-11-27T21:26:09.843Z,4.10
2022-11-27T21:28:37.759Z,4.10
2022-11-27T21:31:09.225Z,4.10
2022-11-27T21:33:37.234Z,4.10
2022-11-27T21:36:05.401Z,4.10
2022-11-27T21:38:32.412Z,4.10
2022-11-27T21:40:59.282Z,4.10
2022-11-27T21:43:26.158Z,4.10
2022-11-27T21:45:53.910Z,4.20
2022-11-27T21:48:21.029Z,4.10
2022-11-27T21:50:47.908Z,4.10
2022-11-27T21:53:15.202Z,4.10
2022-11-27T21:55:42.615Z,4.20
2022-11-27T21:58:09.612Z,4.10
2022-11-27T22:00:37.231Z,4.10
2022-11-27T22:03:04.248Z,4.10
2022-11-27T22:05:31.152Z,4.10
2022-11-27T22:07:58.088Z,4.10
2022-11-27T22:10:25.118Z,4.20
2022-11-27T22:12:52.105Z,4.20
2022-11-27T22:15:19.039Z,4.20
2022-11-27T22:17:46.192Z,4.20
2022-11-27T22:20:13.601Z,4.20
2022-11-27T22:22:40.529Z,4.20
2022-11-27T22:25:07.893Z,4.20
2022-11-27T22:27:34.833Z,4.20
2022-11-27T22:30:01.745Z,4.20
2022-11-27T22:32:28.832Z,4.20
2022-11-27T22:34:55.712Z,4.20
2022-11-27T22:37:22.830Z,4.20
2022-11-27T22:39:49.667Z,4.30
2022-11-27T22:42:16.632Z,4.20
2022-11-27T22:44:43.826Z,4.30
2022-11-27T22:47:11.017Z,4.30
2022-11-27T22:49:37.870Z,4.30
2022-11-27T22:52:04.969Z,4.30
2022-11-27T22:54:31.878Z,4.30
2022-11-27T22:56:58.761Z,4.30
2022-11-27T22:59:34.387Z,4.30
2022-11-27T23:02:02.558Z,4.30
2022-11-27T23:04:29.651Z,4.30
2022-11-27T23:06:56.669Z,4.30
2022-11-27T23:09:23.709Z,4.30
2022-11-27T23:11:50.693Z,4.30
2022-11-27T23:14:17.739Z,4.30
2022-11-27T23:16:45.102Z,4.30
2022-11-27T23:19:12.366Z,4.30
2022-11-27T23:21:39.845Z,4.40
2022-11-27T23:24:10.088Z,4.40
2022-11-27T23:26:37.247Z,4.40
2022-11-27T23:29:04.494Z,4.40
2022-11-27T23:31:34.295Z,4.40
2022-11-27T23:34:04.194Z,4.40
2022-11-27T23:36:32.264Z,4.40
2022-11-27T23:39:04.874Z,4.40
2022-11-27T23:41:32.104Z,4.40
2022-11-27T23:43:59.519Z,4.40
2022-11-27T23:46:28.730Z,4.40
2022-11-27T23:48:57.450Z,4.40
2022-11-27T23:51:28.069Z,4.40
2022-11-27T23:53:55.466Z,4.40
2022-11-27T23:56:25.128Z,4.40
2022-11-27T23:58:53.869Z,4.40
